createdAt,value
2023-04-07T00:00:16.199Z,8.50
2023-04-07T00:02:50.033Z,8.50
2023-04-07T00:05:23.940Z,8.60
2023-04-07T00:07:57.129Z,8.30
2023-04-07T00:10:28.751Z,8.60
2023-04-07T00:13:02.339Z,8.60
2023-04-07T00:15:33.377Z,8.70
2023-04-07T00:18:04.384Z,8.70
2023-04-07T00:20:40.106Z,8.70
2023-04-07T00:23:13.638Z,8.70
2023-04-07T00:25:46.590Z,8.70
2023-04-07T00:28:17.562Z,8.70
2023-04-07T00:30:48.676Z,8.70
2023-04-07T00:33:22.487Z,8.80
2023-04-07T00:35:58.112Z,9.00
2023-04-07T00:38:29.175Z,8.70
2023-04-07T00:41:03.762Z,8.70
2023-04-07T00:43:34.673Z,8.80
2023-04-07T00:46:06.683Z,8.80
2023-04-07T00:48:37.677Z,8.90
2023-04-07T00:51:11.293Z,8.80
2023-04-07T00:53:42.930Z,8.80
2023-04-07T00:56:13.982Z,8.80
2023-04-07T00:58:45.011Z,9.20
2023-04-07T01:01:22.002Z,8.90
2023-04-07T01:03:58.714Z,8.80
2023-04-07T01:06:37.987Z,8.90
2023-04-07T01:09:17.486Z,8.90
2023-04-07T01:12:02.585Z,8.90
2023-04-07T01:14:38.869Z,8.90
2023-04-07T01:17:13.398Z,8.90
2023-04-07T01:19:50.189Z,8.90
2023-04-07T01:22:29.600Z,9.00
2023-04-07T01:25:39.372Z,9.00
2023-04-07T01:28:25.823Z,9.00
2023-04-07T01:31:01.181Z,9.00
2023-04-07T01:33:36.700Z,9.00
2023-04-07T01:36:11.021Z,9.00
2023-04-07T01:38:43.092Z,9.00
2023-04-07T01:41:17.788Z,9.10
2023-04-07T01:43:50.234Z,9.00
2023-04-07T01:46:27.020Z,9.00
2023-04-07T01:48:59.638Z,9.10
2023-04-07T01:51:33.247Z,9.10
2023-04-07T01:54:06.033Z,9.10
2023-04-07T01:56:41.177Z,9.10
2023-04-07T01:59:12.205Z,9.10
2023-04-07T02:01:47.406Z,9.10
2023-04-07T02:04:25.759Z,9.10
2023-04-07T02:07:03.099Z,9.10
2023-04-07T02:09:36.598Z,9.10
2023-04-07T02:12:11.242Z,9.10
2023-04-07T02:14:42.733Z,9.10
2023-04-07T02:17:19.997Z,9.00
2023-04-07T02:19:52.199Z,9.00
2023-04-07T02:22:24.921Z,9.00
2023-04-07T02:24:55.991Z,9.00
2023-04-07T02:27:26.945Z,9.10
2023-04-07T02:29:57.925Z,9.20
2023-04-07T02:32:31.463Z,9.20
2023-04-07T02:35:04.967Z,9.10
2023-04-07T02:37:35.871Z,9.20
2023-04-07T02:40:07.218Z,9.10
2023-04-07T02:42:39.879Z,9.10
2023-04-07T02:45:12.360Z,9.10
2023-04-07T02:47:45.853Z,9.00
2023-04-07T02:50:16.937Z,9.10
2023-04-07T02:52:48.097Z,9.10
2023-04-07T02:55:19.183Z,9.10
2023-04-07T02:57:50.448Z,9.10
2023-04-07T03:00:21.718Z,9.10
2023-04-07T03:02:58.058Z,9.20
2023-04-07T03:05:28.995Z,9.10
2023-04-07T03:08:00.603Z,9.20
2023-04-07T03:10:31.635Z,9.20
2023-04-07T03:13:02.594Z,9.30
2023-04-07T03:15:36.725Z,9.30
2023-04-07T03:18:10.233Z,9.30
2023-04-07T03:20:42.099Z,9.30
2023-04-07T03:23:13.195Z,9.30
2023-04-07T03:25:44.593Z,9.30
2023-04-07T03:28:16.612Z,9.30
2023-04-07T03:30:48.095Z,9.30
2023-04-07T03:33:21.625Z,9.30
2023-04-07T03:35:52.682Z,9.30
2023-04-07T03:38:23.926Z,9.30
2023-04-07T03:40:54.790Z,9.30
2023-04-07T03:43:25.870Z,9.30
2023-04-07T03:45:57.597Z,9.00
2023-04-07T03:48:36.133Z,9.40
2023-04-07T03:51:10.187Z,9.40
2023-04-07T03:53:41.718Z,9.20
2023-04-07T03:56:13.127Z,9.40
2023-04-07T03:58:47.138Z,9.40
2023-04-07T04:01:18.061Z,9.40
2023-04-07T04:03:54.146Z,9.40
2023-04-07T04:06:26.599Z,9.40
2023-04-07T04:08:57.679Z,9.50
2023-04-07T04:11:28.628Z,9.40
2023-04-07T04:13:59.662Z,9.40
2023-04-07T04:16:31.911Z,9.40
2023-04-07T04:19:05.673Z,9.30
2023-04-07T04:21:36.622Z,9.40
2023-04-07T04:24:08.096Z,9.40
2023-04-07T04:26:39.115Z,9.50
2023-04-07T04:29:10.005Z,9.50
2023-04-07T04:31:43.543Z,9.60
2023-04-07T04:34:17.604Z,9.60
2023-04-07T04:36:49.396Z,9.60
2023-04-07T04:39:20.576Z,9.50
2023-04-07T04:41:52.111Z,9.50
2023-04-07T04:44:27.418Z,9.60
2023-04-07T04:46:58.384Z,9.60
2023-04-07T04:49:34.341Z,9.60
2023-04-07T04:52:05.444Z,9.60
2023-04-07T04:54:36.493Z,9.60
2023-04-07T04:57:07.504Z,9.60
2023-04-07T04:59:39.931Z,9.60
2023-04-07T05:02:11.645Z,9.60
2023-04-07T05:04:45.989Z,9.50
2023-04-07T05:07:17.137Z,9.50
2023-04-07T05:09:48.226Z,9.50
2023-04-07T05:12:19.135Z,9.50
2023-04-07T05:14:50.093Z,9.50
2023-04-07T05:17:21.236Z,9.50
2023-04-07T05:19:54.839Z,9.50
2023-04-07T05:22:25.773Z,9.40
2023-04-07T05:24:59.411Z,9.40
2023-04-07T05:27:30.383Z,9.40
2023-04-07T05:30:01.679Z,9.40
2023-04-07T05:32:32.717Z,9.40
2023-04-07T05:35:06.319Z,9.50
2023-04-07T05:37:37.294Z,9.50
2023-04-07T05:40:12.008Z,9.40
2023-04-07T05:42:42.986Z,9.40
2023-04-07T05:45:14.489Z,9.40
2023-04-07T05:47:47.481Z,9.40
2023-04-07T05:50:21.209Z,9.30
2023-04-07T05:52:53.363Z,9.30
2023-04-07T05:55:24.311Z,9.40
2023-04-07T05:57:55.177Z,9.40
2023-04-07T06:00:27.473Z,9.40
2023-04-07T06:02:58.837Z,9.40
2023-04-07T06:05:32.650Z,9.40
2023-04-07T06:08:06.299Z,9.40
2023-04-07T06:10:37.269Z,9.40
2023-04-07T06:13:11.162Z,9.40
2023-04-07T06:15:43.837Z,9.50
2023-04-07T06:18:14.707Z,9.30
2023-04-07T06:20:48.687Z,9.50
2023-04-07T06:23:19.793Z,9.50
2023-04-07T06:25:52.137Z,9.50
2023-04-07T06:28:23.699Z,9.50
2023-04-07T06:30:57.008Z,9.50
2023-04-07T06:33:28.720Z,9.40
2023-04-07T06:36:02.288Z,9.40
2023-04-07T06:38:33.768Z,9.40
2023-04-07T06:41:04.775Z,9.50
2023-04-07T06:43:35.729Z,9.60
2023-04-07T06:46:06.896Z,9.50
2023-04-07T06:48:37.942Z,9.60
2023-04-07T06:51:12.087Z,9.50
2023-04-07T06:53:44.403Z,9.50
2023-04-07T06:56:15.683Z,9.40
2023-04-07T06:58:49.362Z,9.40
2023-04-07T07:01:20.402Z,9.40
2023-04-07T07:03:52.044Z,9.40
2023-04-07T07:06:26.871Z,9.40
2023-04-07T07:08:58.112Z,9.50
2023-04-07T07:11:29.061Z,10.00
2023-04-07T07:14:00.015Z,9.60
2023-04-07T07:16:33.255Z,9.60
2023-04-07T07:19:04.300Z,9.60
2023-04-07T07:21:37.761Z,9.60
2023-04-07T07:24:09.158Z,9.60
2023-04-07T07:26:43.481Z,9.70
2023-04-07T07:29:15.274Z,9.80
2023-04-07T07:31:46.774Z,9.70
2023-04-07T07:34:20.293Z,9.60
2023-04-07T07:36:53.903Z,9.60
2023-04-07T07:39:24.824Z,9.60
2023-04-07T07:41:56.046Z,9.60
2023-04-07T07:44:27.581Z,9.70
2023-04-07T07:46:58.552Z,10.10
2023-04-07T07:49:32.048Z,9.80
2023-04-07T07:52:05.632Z,9.90
2023-04-07T07:54:36.702Z,10.30
2023-04-07T07:57:07.694Z,10.00
2023-04-07T07:59:39.006Z,10.10
2023-04-07T08:02:10.331Z,10.20
2023-04-07T08:04:41.757Z,10.10
2023-04-07T08:07:16.469Z,10.10
2023-04-07T08:09:47.683Z,10.10
2023-04-07T08:12:18.834Z,10.10
2023-04-07T08:14:50.147Z,10.00
2023-04-07T08:17:23.751Z,10.00
2023-04-07T08:19:54.885Z,10.10
2023-04-07T08:22:28.546Z,10.10
2023-04-07T08:24:59.618Z,10.20
2023-04-07T08:27:31.022Z,10.30
2023-04-07T08:30:03.696Z,10.30
2023-04-07T08:32:39.075Z,10.50
2023-04-07T08:35:10.668Z,10.40
2023-04-07T08:37:45.068Z,10.30
2023-04-07T08:40:16.390Z,10.40
2023-04-07T08:42:52.795Z,10.30
2023-04-07T08:45:25.162Z,10.20
2023-04-07T08:47:59.646Z,10.20
2023-04-07T08:50:31.042Z,10.30
2023-04-07T08:53:09.526Z,10.40
2023-04-07T08:55:43.344Z,10.50
2023-04-07T08:58:15.021Z,10.50
2023-04-07T09:00:49.461Z,10.40
2023-04-07T09:03:21.491Z,10.40
2023-04-07T09:05:54.107Z,10.50
2023-04-07T09:08:29.926Z,10.50
2023-04-07T09:11:01.941Z,10.50
2023-04-07T09:13:33.687Z,10.50
2023-04-07T09:16:05.718Z,10.50
2023-04-07T09:18:37.058Z,10.50
2023-04-07T09:21:15.768Z,10.50
2023-04-07T09:24:23.994Z,10.60
2023-04-07T09:27:16.565Z,10.70
2023-04-07T09:29:49.781Z,10.70
2023-04-07T09:32:38.814Z,10.70
2023-04-07T09:35:11.148Z,10.70
2023-04-07T09:37:42.795Z,10.70
2023-04-07T09:40:30.051Z,10.60
2023-04-07T09:43:01.327Z,11.00
2023-04-07T09:45:35.824Z,10.60
2023-04-07T09:48:20.626Z,10.70
2023-04-07T09:50:52.208Z,10.70
2023-04-07T09:53:25.837Z,10.80
2023-04-07T09:55:59.716Z,10.70
2023-04-07T09:58:33.277Z,10.80
2023-04-07T10:01:04.870Z,10.80
2023-04-07T10:03:37.284Z,10.80
2023-04-07T10:06:10.924Z,10.70
2023-04-07T10:08:43.985Z,10.70
2023-04-07T10:11:18.965Z,10.60
2023-04-07T10:13:50.236Z,10.60
2023-04-07T10:16:21.795Z,10.60
2023-04-07T10:18:53.125Z,10.60
2023-04-07T10:21:25.053Z,10.50
2023-04-07T10:24:02.789Z,10.40
2023-04-07T10:26:42.366Z,10.30
2023-04-07T10:29:17.015Z,10.30
2023-04-07T10:31:49.651Z,10.20
2023-04-07T10:34:21.115Z,10.20
2023-04-07T10:37:14.515Z,10.20
2023-04-07T10:39:45.699Z,10.20
2023-04-07T10:42:52.072Z,10.10
2023-04-07T10:45:56.653Z,10.10
2023-04-07T10:48:28.747Z,10.10
2023-04-07T10:51:18.924Z,10.00
2023-04-07T10:54:29.020Z,10.20
2023-04-07T10:57:14.645Z,10.30
2023-04-07T11:00:20.868Z,10.40
2023-04-07T11:02:52.152Z,10.40
2023-04-07T11:05:25.888Z,10.60
2023-04-07T11:08:02.903Z,10.40
2023-04-07T11:10:36.872Z,10.40
2023-04-07T11:13:10.639Z,10.30
2023-04-07T11:15:44.396Z,10.30
2023-04-07T11:18:23.619Z,10.30
2023-04-07T11:20:58.499Z,10.20
2023-04-07T11:23:42.362Z,10.30
2023-04-07T11:26:15.053Z,10.40
2023-04-07T11:28:49.207Z,10.50
2023-04-07T11:31:28.281Z,10.50
2023-04-07T11:34:01.991Z,10.50
2023-04-07T11:36:34.733Z,10.50
2023-04-07T11:39:05.984Z,10.60
2023-04-07T11:41:51.474Z,10.80
2023-04-07T11:44:27.186Z,10.80
2023-04-07T11:47:03.885Z,10.80
2023-04-07T11:49:48.942Z,10.70
2023-04-07T11:52:20.911Z,10.60
2023-04-07T11:54:52.250Z,10.70
2023-04-07T11:57:29.001Z,10.70
2023-04-07T12:00:09.225Z,10.70
2023-04-07T12:02:43.234Z,10.60
2023-04-07T12:05:14.636Z,10.70
2023-04-07T12:07:58.079Z,10.70
2023-04-07T12:10:29.680Z,10.70
2023-04-07T12:13:02.639Z,10.70
2023-04-07T12:15:36.933Z,10.60
2023-04-07T12:18:10.525Z,10.60
2023-04-07T12:20:41.717Z,10.50
2023-04-07T12:23:12.700Z,10.50
2023-04-07T12:25:44.009Z,10.40
2023-04-07T12:28:15.007Z,10.40
2023-04-07T12:30:46.356Z,10.50
2023-04-07T12:33:19.858Z,10.40
2023-04-07T12:35:51.972Z,10.50
2023-04-07T12:38:23.014Z,10.50
2023-04-07T12:40:54.614Z,10.60
2023-04-07T12:43:25.556Z,10.60
2023-04-07T12:45:58.509Z,10.50
2023-04-07T12:48:32.933Z,10.60
2023-04-07T12:51:04.446Z,10.80
2023-04-07T12:53:38.166Z,10.90
2023-04-07T12:56:10.024Z,10.80
2023-04-07T12:58:40.876Z,10.90
2023-04-07T13:01:12.047Z,10.90
2023-04-07T13:03:45.559Z,10.70
2023-04-07T13:06:17.634Z,10.90
2023-04-07T13:08:48.998Z,10.80
2023-04-07T13:11:20.157Z,10.70
2023-04-07T13:13:51.197Z,10.80
2023-04-07T13:16:25.347Z,10.60
2023-04-07T13:18:58.957Z,10.60
2023-04-07T13:24:04.941Z,10.40
2023-04-07T13:26:35.922Z,10.80
2023-04-07T13:29:07.077Z,10.40
2023-04-07T13:31:38.259Z,10.40
2023-04-07T13:34:11.807Z,10.50
2023-04-07T13:36:42.749Z,10.60
2023-04-07T13:39:14.037Z,10.60
2023-04-07T13:41:45.036Z,10.70
2023-04-07T13:44:16.016Z,10.70
2023-04-07T13:46:46.912Z,11.00
2023-04-07T13:49:20.911Z,10.70
2023-04-07T13:51:52.086Z,10.60
2023-04-07T13:54:23.072Z,10.70
2023-04-07T13:56:54.161Z,10.70
2023-04-07T13:59:25.282Z,10.80
2023-04-07T14:01:56.307Z,10.90
2023-04-07T14:04:30.106Z,10.90
2023-04-07T14:07:01.104Z,10.90
2023-04-07T14:09:32.095Z,10.90
2023-04-07T14:12:03.001Z,10.80
2023-04-07T14:14:37.654Z,10.80
2023-04-07T14:17:08.710Z,10.80
2023-04-07T14:19:45.543Z,10.90
2023-04-07T14:22:17.387Z,10.90
2023-04-07T14:24:51.577Z,10.90
2023-04-07T14:27:23.580Z,10.80
2023-04-07T14:29:58.400Z,10.80
2023-04-07T14:32:30.236Z,10.80
2023-04-07T14:35:04.148Z,10.70
2023-04-07T14:37:38.567Z,10.60
2023-04-07T14:40:11.358Z,10.70
2023-04-07T14:42:43.413Z,10.80
2023-04-07T14:45:15.596Z,10.70
2023-04-07T14:47:46.743Z,10.70
2023-04-07T14:50:20.570Z,10.80
2023-04-07T14:52:51.480Z,10.80
2023-04-07T14:55:25.223Z,10.90
2023-04-07T14:57:56.180Z,10.90
2023-04-07T15:00:28.912Z,10.90
2023-04-07T15:03:00.417Z,11.30
2023-04-07T15:05:35.418Z,11.00
2023-04-07T15:08:06.534Z,11.00
2023-04-07T15:10:38.749Z,11.10
2023-04-07T15:13:09.836Z,11.10
2023-04-07T15:15:40.906Z,11.30
2023-04-07T15:18:16.859Z,11.00
2023-04-07T15:20:50.401Z,11.00
2023-04-07T15:23:23.876Z,11.00
2023-04-07T15:25:56.373Z,11.10
2023-04-07T15:28:27.685Z,11.50
2023-04-07T15:31:19.050Z,11.20
2023-04-07T15:33:53.175Z,11.20
2023-04-07T15:36:27.561Z,11.20
2023-04-07T15:38:58.724Z,11.20
2023-04-07T15:41:31.022Z,11.20
2023-04-07T15:44:02.522Z,11.10
2023-04-07T15:46:33.685Z,11.00
2023-04-07T15:49:06.875Z,11.50
2023-04-07T15:51:40.657Z,11.10
2023-04-07T15:54:11.567Z,11.20
2023-04-07T15:56:42.829Z,11.10
2023-04-07T15:59:13.822Z,11.10
2023-04-07T16:01:45.018Z,11.10
2023-04-07T16:04:16.140Z,11.10
2023-04-07T16:06:49.958Z,11.10
2023-04-07T16:09:21.098Z,11.10
2023-04-07T16:11:55.013Z,11.00
2023-04-07T16:14:29.056Z,11.00
2023-04-07T16:17:00.968Z,11.00
2023-04-07T16:19:34.342Z,11.00
2023-04-07T16:22:07.782Z,11.40
2023-04-07T16:24:38.664Z,11.00
2023-04-07T16:27:09.558Z,11.40
2023-04-07T16:29:40.437Z,10.90
2023-04-07T16:32:11.449Z,10.90
2023-04-07T16:34:42.379Z,10.90
2023-04-07T16:37:16.306Z,10.90
2023-04-07T16:39:47.252Z,10.90
2023-04-07T16:42:18.360Z,10.90
2023-04-07T16:44:49.225Z,10.90
2023-04-07T16:47:20.534Z,10.90
2023-04-07T16:49:51.498Z,11.10
2023-04-07T16:52:25.546Z,10.90
2023-04-07T16:54:56.697Z,10.80
2023-04-07T16:57:27.897Z,10.80
2023-04-07T16:59:59.410Z,10.80
2023-04-07T17:02:31.134Z,10.90
2023-04-07T17:05:02.383Z,10.90
2023-04-07T17:07:36.181Z,10.90
2023-04-07T17:10:07.562Z,10.90
2023-04-07T17:12:38.534Z,10.90
2023-04-07T17:15:10.530Z,10.90
2023-04-07T17:17:41.501Z,10.90
2023-04-07T17:20:13.718Z,10.80
2023-04-07T17:22:50.151Z,10.80
2023-04-07T17:25:21.323Z,10.80
2023-04-07T17:27:56.886Z,10.70
2023-04-07T17:30:27.953Z,10.70
2023-04-07T17:33:01.693Z,10.70
2023-04-07T17:35:36.265Z,10.70
2023-04-07T17:38:09.857Z,10.70
2023-04-07T17:40:41.005Z,10.70
2023-04-07T17:43:12.305Z,10.60
2023-04-07T17:45:43.337Z,10.60
2023-04-07T17:48:14.364Z,10.60
2023-04-07T17:50:45.947Z,10.60
2023-04-07T17:53:22.277Z,10.60
2023-04-07T17:55:53.372Z,10.60
2023-04-07T17:58:25.004Z,10.60
2023-04-07T18:00:55.942Z,10.50
2023-04-07T18:03:27.135Z,10.50
2023-04-07T18:05:58.133Z,10.40
2023-04-07T18:08:32.445Z,10.30
2023-04-07T18:11:05.896Z,10.20
2023-04-07T18:13:38.151Z,10.10
2023-04-07T18:16:12.034Z,10.10
2023-04-07T18:18:42.948Z,10.10
2023-04-07T18:21:13.884Z,10.00
2023-04-07T18:23:47.554Z,10.10
2023-04-07T18:26:18.588Z,10.10
2023-04-07T18:28:49.612Z,10.00
2023-04-07T18:31:20.825Z,10.00
2023-04-07T18:33:51.908Z,10.10
2023-04-07T18:36:25.689Z,10.10
2023-04-07T18:38:59.216Z,10.10
2023-04-07T18:41:30.246Z,10.10
2023-04-07T18:44:01.419Z,10.10
2023-04-07T18:46:32.541Z,10.00
2023-04-07T18:49:03.697Z,9.90
2023-04-07T18:51:34.808Z,9.90
2023-04-07T18:54:08.385Z,9.90
2023-04-07T18:56:39.949Z,9.90
2023-04-07T18:59:11.011Z,9.90
2023-04-07T19:01:42.655Z,10.00
2023-04-07T19:04:15.200Z,9.90
2023-04-07T19:06:46.150Z,9.80
2023-04-07T19:09:19.613Z,9.80
2023-04-07T19:11:51.821Z,9.80
2023-04-07T19:14:22.786Z,9.80
2023-04-07T19:16:55.092Z,9.80
2023-04-07T19:19:27.952Z,9.80
2023-04-07T19:22:02.026Z,9.90
2023-04-07T19:24:36.241Z,9.90
2023-04-07T19:27:07.322Z,9.90
2023-04-07T19:29:38.275Z,9.90
2023-04-07T19:32:10.037Z,9.90
2023-04-07T19:34:41.078Z,10.10
2023-04-07T19:37:13.532Z,9.90
2023-04-07T19:40:01.829Z,10.20
2023-04-07T19:42:38.155Z,9.90
2023-04-07T19:45:10.324Z,10.10
2023-04-07T19:47:41.619Z,9.90
2023-04-07T19:50:14.460Z,9.90
2023-04-07T19:52:45.932Z,9.90
2023-04-07T19:55:19.717Z,9.80
2023-04-07T19:57:50.637Z,9.80
2023-04-07T20:00:21.753Z,10.10
2023-04-07T20:02:52.984Z,9.80
2023-04-07T20:05:24.483Z,10.10
2023-04-07T20:07:55.516Z,9.70
2023-04-07T20:10:29.628Z,9.60
2023-04-07T20:13:00.467Z,9.70
2023-04-07T20:15:31.488Z,9.70
2023-04-07T20:18:04.812Z,9.70
2023-04-07T20:20:39.502Z,9.70
2023-04-07T20:23:12.555Z,9.70
2023-04-07T20:25:46.422Z,9.70
2023-04-07T20:28:17.369Z,9.70
2023-04-07T20:30:48.621Z,9.70
2023-04-07T20:33:19.962Z,9.60
2023-04-07T20:35:51.057Z,9.60
2023-04-07T20:38:22.240Z,9.70
2023-04-07T20:40:55.951Z,9.60
2023-04-07T20:43:26.861Z,9.70
2023-04-07T20:45:58.413Z,9.60
2023-04-07T20:48:29.381Z,9.60
2023-04-07T20:51:00.302Z,9.60
2023-04-07T20:53:31.901Z,9.60
2023-04-07T20:56:05.816Z,9.50
2023-04-07T20:58:37.322Z,9.50
2023-04-07T21:01:08.418Z,9.50
2023-04-07T21:03:39.546Z,9.40
2023-04-07T21:06:11.476Z,9.30
2023-04-07T21:08:44.924Z,9.30
2023-04-07T21:11:18.487Z,9.30
2023-04-07T21:13:49.357Z,9.30
2023-04-07T21:16:20.292Z,9.20
2023-04-07T21:18:51.566Z,9.20
2023-04-07T21:21:22.507Z,9.20
2023-04-07T21:23:56.365Z,9.10
2023-04-07T21:26:29.902Z,9.10
2023-04-07T21:29:00.824Z,9.00
2023-04-07T21:31:34.041Z,9.00
2023-04-07T21:34:04.968Z,8.90
2023-04-07T21:36:36.149Z,8.90
2023-04-07T21:39:07.367Z,8.80
2023-04-07T21:41:40.968Z,8.80
2023-04-07T21:44:13.140Z,8.80
2023-04-07T21:46:44.125Z,8.70
2023-04-07T21:49:22.069Z,8.80
2023-04-07T21:51:53.025Z,8.70
2023-04-07T21:54:25.127Z,8.70
2023-04-07T21:56:58.974Z,8.70
2023-04-07T21:59:32.655Z,8.60
2023-04-07T22:02:03.850Z,8.60
2023-04-07T22:04:38.474Z,8.50
2023-04-07T22:07:09.394Z,8.40
2023-04-07T22:09:40.622Z,8.40
2023-04-07T22:12:14.092Z,8.40
2023-04-07T22:14:45.387Z,8.30
2023-04-07T22:17:16.383Z,8.30
2023-04-07T22:19:47.290Z,8.30
2023-04-07T22:22:18.201Z,8.30
2023-04-07T22:24:49.149Z,8.20
2023-04-07T22:27:22.994Z,8.10
2023-04-07T22:29:53.875Z,8.10
2023-04-07T22:32:24.806Z,8.10
2023-04-07T22:34:55.760Z,8.10
2023-04-07T22:37:27.312Z,8.00
2023-04-07T22:39:58.244Z,7.90
2023-04-07T22:42:31.708Z,7.80
2023-04-07T22:45:02.627Z,7.70
2023-04-07T22:47:33.534Z,7.70
2023-04-07T22:50:04.747Z,7.60
2023-04-07T22:52:35.760Z,7.60
2023-04-07T22:55:07.189Z,7.60
2023-04-07T22:57:40.640Z,7.50
2023-04-07T23:00:14.005Z,7.40
2023-04-07T23:02:45.116Z,7.40
2023-04-07T23:05:16.432Z,7.30
2023-04-07T23:07:50.430Z,6.80
2023-04-07T23:10:21.469Z,7.20
2023-04-07T23:12:55.534Z,7.20
2023-04-07T23:15:27.384Z,7.20
2023-04-07T23:17:58.332Z,7.10
2023-04-07T23:20:29.398Z,7.10
2023-04-07T23:23:00.457Z,7.00
2023-04-07T23:25:32.887Z,7.00
2023-04-07T23:28:06.332Z,7.00
2023-04-07T23:30:37.515Z,7.00
2023-04-07T23:33:08.500Z,6.90
2023-04-07T23:35:39.421Z,7.30
2023-04-07T23:38:11.086Z,6.80
2023-04-07T23:40:42.078Z,6.80
2023-04-07T23:43:15.489Z,6.70
2023-04-07T23:45:49.120Z,6.70
2023-04-07T23:48:19.978Z,6.60
2023-04-07T23:50:52.579Z,6.60
2023-04-07T23:53:23.470Z,6.60
2023-04-07T23:55:54.533Z,6.60
2023-04-07T23:58:27.972Z,6.50
